Malachit>> — P3QX3 — position and weather

sailwx.info

Track history (hours):
 
Tides and Currents Weather Stations Pressure Air Temp Water Temp Dewpoint Dewpoint Depression Visibility Wind Speed Wind Dir Waves Ship Positions

Malachit>>

Last reported at 2014-Feb-05 10:25 UTC. Time now 2014-Nov-01 09:55 UTC.
Position N 29°51' E 122°40'.
Warning: this ship's position is months out of date.

Length 113 m; draft 5.8 m.

Type: Ship. MMSI: 210113000.

Date/timePositionNaut miles runAvg speedWind from/ knotsBaromVisibWave heightAir tempDewpointWater temp
2014-Feb-05 10:25N 29°51' E 122°40'910.6
2014-Feb-05 09:33N 29°48' E 122°30'7 6.7
2014-Feb-05 08:30N 29°47' E 122°22'0 0.1
2014-Feb-05 07:28N 29°47' E 122°22'0 0.1
2014-Feb-05 06:32N 29°47' E 122°22'0 0.0
2014-Feb-05 05:32N 29°47' E 122°22'0 0.0
2014-Feb-05 04:30N 29°47' E 122°22'0 0.0
2014-Feb-05 03:27N 29°47' E 122°22'0 0.0
2014-Feb-05 02:31N 29°47' E 122°22'0 0.0
2014-Feb-05 01:09N 29°47' E 122°22'0 0.0
2014-Feb-05 00:32N 29°47' E 122°22'0 0.0
2014-Feb-04 22:32N 29°47' E 122°22'0 0.0
2014-Feb-04 21:33N 29°47' E 122°22'0 0.1
2014-Feb-04 20:27N 29°47' E 122°22'0 0.0
2014-Feb-04 18:19N 29°47' E 122°22'0 0.1
2014-Feb-04 17:20N 29°47' E 122°22'0 0.0
2014-Feb-04 16:15N 29°47' E 122°22'0 0.0
2014-Feb-04 15:17N 29°47' E 122°22'0 0.0
2014-Feb-04 14:24N 29°47' E 122°22'0 0.1
2014-Feb-04 13:26N 29°47' E 122°22'0 0.1
2014-Feb-04 12:28N 29°47' E 122°22'1 1.4
2014-Feb-04 11:33N 29°46' E 122°21'6 5.9
2014-Feb-04 10:33N 29°48' E 122°14'7 6.1
2014-Feb-04 09:25N 29°55' E 122°13'0 0.0
2014-Feb-04 08:31N 29°55' E 122°13'0 0.1
2014-Feb-04 07:27N 29°55' E 122°13'0 0.0
2014-Feb-04 06:24N 29°55' E 122°13'0 0.1
2014-Feb-04 05:31N 29°55' E 122°13'4 4.2
2014-Feb-04 04:33N 29°55' E 122°08'6 5.7
2014-Feb-04 03:33N 29°55' E 122°01'7 6.9
2014-Feb-04 02:33N 30°01' E 121°57'4 0.3
2014-Feb-03 13:18N 30°05' E 121°57'0 0.0
2014-Feb-03 08:15N 30°05' E 121°57'0 0.0
2014-Feb-03 00:32N 30°05' E 121°57'0 0.0
2014-Feb-02 23:25N 30°05' E 121°57'0 0.0
2014-Feb-02 20:13N 30°05' E 121°57'0 0.0
2014-Feb-02 17:19N 30°05' E 121°57'0 0.0
2014-Feb-02 16:13N 30°05' E 121°57'0 0.0
2014-Feb-02 15:09N 30°05' E 121°57'0 0.0
2014-Feb-02 09:21N 30°05' E 121°57'0 0.0
2014-Feb-02 06:32N 30°05' E 121°57'0 0.0
2014-Feb-02 01:26N 30°05' E 121°57'0 0.0
2014-Feb-02 00:13N 30°05' E 121°57'0 0.0
2014-Feb-01 23:24N 30°05' E 121°57'0 0.0
2014-Feb-01 22:19N 30°05' E 121°57'0 0.0
2014-Feb-01 21:25N 30°05' E 121°57'0 0.0
2014-Feb-01 20:20N 30°05' E 121°57'0 0.0
2014-Feb-01 19:27N 30°05' E 121°57'0 0.0
2014-Feb-01 18:24N 30°05' E 121°57'0 0.0
2014-Feb-01 17:28N 30°05' E 121°57'0 0.0
2014-Feb-01 16:30N 30°05' E 121°57'0 0.0
2014-Feb-01 15:17N 30°05' E 121°57'0 0.0
2014-Feb-01 14:32N 30°05' E 121°57'0 0.0
2014-Feb-01 12:22N 30°05' E 121°57'0 0.0
2014-Feb-01 11:26N 30°05' E 121°57'0 0.0
2014-Feb-01 10:30N 30°05' E 121°57'0 0.0
2014-Feb-01 09:10N 30°05' E 121°57'0 0.0
2014-Feb-01 06:16N 30°05' E 121°57'0 0.0
2014-Feb-01 05:18N 30°05' E 121°57'0 0.0
2014-Feb-01 04:13N 30°05' E 121°57'0 0.0
2014-Feb-01 02:22N 30°05' E 121°57'0 0.0
2014-Feb-01 01:27N 30°05' E 121°57'0 0.0
2014-Jan-31 22:22N 30°05' E 121°57'0 0.0
2014-Jan-31 21:11N 30°05' E 121°57'0 0.0
2014-Jan-31 20:32N 30°05' E 121°57'0 0.0
2014-Jan-31 18:20N 30°05' E 121°57'0 0.0
2014-Jan-31 17:18N 30°05' E 121°57'0 0.0
2014-Jan-31 16:20N 30°05' E 121°57'0 0.0
2014-Jan-31 15:25N 30°05' E 121°57'0 0.0
2014-Jan-31 14:31N 30°05' E 121°57'0 0.0
2014-Jan-31 13:12N 30°05' E 121°57'0 0.0
2014-Jan-31 12:16N 30°05' E 121°57'0 0.0
2014-Jan-31 09:10N 30°05' E 121°57'0 0.0
2014-Jan-31 08:24N 30°05' E 121°57'0 0.0
2014-Jan-31 07:19N 30°05' E 121°57'0 0.0
2014-Jan-31 05:11N 30°05' E 121°57'0 0.0
2014-Jan-31 03:18N 30°05' E 121°57'0 0.0
2014-Jan-30 15:24N 30°05' E 121°57'0 0.0
2014-Jan-30 14:29N 30°05' E 121°57'0 0.0
2014-Jan-30 11:23N 30°05' E 121°57'0 0.0
2014-Jan-30 09:26N 30°05' E 121°57'0 0.0
2014-Jan-30 07:17N 30°05' E 121°57'0 0.0
2014-Jan-30 02:08N 30°05' E 121°57'0 0.0
2014-Jan-30 01:27N 30°05' E 121°57'0 0.0
2014-Jan-30 00:30N 30°05' E 121°57'0 0.0
2014-Jan-29 22:29N 30°05' E 121°57'0 0.0
2014-Jan-29 22:06N 30°05' E 121°57'0 0.0
2014-Jan-29 20:23N 30°05' E 121°57'0 0.0
2014-Jan-29 19:25N 30°05' E 121°57'0 0.0
2014-Jan-29 18:31N 30°05' E 121°57'0 0.0
2014-Jan-29 17:20N 30°05' E 121°57'0 0.0
2014-Jan-29 16:30N 30°05' E 121°57'0 0.0
2014-Jan-29 15:04N 30°05' E 121°57'0 0.0
2014-Jan-29 14:24N 30°05' E 121°57'0 0.0
2014-Jan-29 13:12N 30°05' E 121°57'0 0.0
2014-Jan-29 12:27N 30°05' E 121°57'0 0.0
2014-Jan-29 11:26N 30°05' E 121°57'0 0.0
2014-Jan-29 10:30N 30°05' E 121°57'0 0.0
2014-Jan-29 09:33N 30°05' E 121°57'0 0.0
2014-Jan-29 08:31N 30°05' E 121°57'0 0.0
2014-Jan-29 07:25N 30°05' E 121°57'0 0.0
2014-Jan-29 05:26N 30°05' E 121°57'0 0.0
2014-Jan-29 04:15N 30°05' E 121°57'0 0.0
2014-Jan-29 03:12N 30°05' E 121°57'0 0.0
2014-Jan-29 02:31N 30°05' E 121°57'0 0.0
2014-Jan-29 00:16N 30°05' E 121°57'0 0.0
2014-Jan-28 20:15N 30°05' E 121°57'0 0.0
2014-Jan-28 18:32N 30°05' E 121°57'0 0.0
2014-Jan-28 16:22N 30°05' E 121°57'0 0.0
2014-Jan-28 14:23N 30°05' E 121°57'0 0.0
2014-Jan-28 13:32N 30°05' E 121°57'0 0.0
2014-Jan-28 12:30N 30°05' E 121°57'0 0.0
2014-Jan-28 10:22N 30°05' E 121°57'0 0.0
2014-Jan-28 09:27N 30°05' E 121°57'0 0.0
2014-Jan-28 08:31N 30°05' E 121°57'0 0.0
2014-Jan-28 07:12N 30°05' E 121°57'0 0.0
2014-Jan-28 06:29N 30°05' E 121°57'0 0.0
2014-Jan-28 05:27N 30°05' E 121°57'0 0.0
2014-Jan-28 04:15N 30°05' E 121°57'0 0.0
2014-Jan-28 03:12N 30°05' E 121°57'0 0.0
2014-Jan-28 02:30N 30°05' E 121°57'0 0.0
2014-Jan-28 01:27N 30°05' E 121°57'0 0.0
2014-Jan-28 00:32N 30°05' E 121°57'0 0.0
2014-Jan-27 23:28N 30°05' E 121°57'0 0.0
2014-Jan-27 21:17N 30°05' E 121°57'0 0.0
2014-Jan-27 20:23N 30°05' E 121°57'0 0.0
2014-Jan-27 19:28N 30°05' E 121°57'0 0.0
2014-Jan-27 18:31N 30°05' E 121°57'0 0.0
2014-Jan-27 17:26N 30°05' E 121°57'0 0.0
2014-Jan-27 16:21N 30°05' E 121°57'0 0.0
2014-Jan-27 15:25N 30°05' E 121°57'0 0.0
2014-Jan-27 14:30N 30°05' E 121°57'0 0.0
2014-Jan-27 13:33N 30°05' E 121°57'0 0.0
2014-Jan-27 12:29N 30°05' E 121°57'0 0.0
2014-Jan-27 11:28N 30°05' E 121°57'0 0.0
2014-Jan-27 10:29N 30°05' E 121°57'0 0.0
2014-Jan-27 09:26N 30°05' E 121°57'0 0.0
2014-Jan-27 08:14N 30°05' E 121°57'0 0.0
2014-Jan-27 07:31N 30°05' E 121°57'0 0.0
2014-Jan-27 06:27N 30°05' E 121°57'0 0.0
2014-Jan-27 05:17N 30°05' E 121°57'0 0.0
2014-Jan-27 04:30N 30°05' E 121°57'0 0.0
2014-Jan-27 02:22N 30°05' E 121°57'0 0.0
2014-Jan-27 00:24N 30°05' E 121°57'0 0.0
2014-Jan-26 23:26N 30°05' E 121°57'0 0.0
2014-Jan-26 22:14N 30°05' E 121°57'0 0.0
2014-Jan-26 21:19N 30°05' E 121°57'0 0.0
2014-Jan-26 20:32N 30°05' E 121°57'0 0.0
2014-Jan-26 17:26N 30°05' E 121°57'0 0.0
2014-Jan-26 16:27N 30°05' E 121°57'0 0.0
2014-Jan-26 15:33N 30°05' E 121°57'0 0.0
2014-Jan-26 14:31N 30°05' E 121°57'0 0.0
2014-Jan-26 12:11N 30°05' E 121°57'0 0.0
2014-Jan-26 10:30N 30°05' E 121°57'  
Track history (hours):
 
Tides and Currents Weather Stations Pressure Air Temp Water Temp Dewpoint Dewpoint Depression Visibility Wind Speed Wind Dir Waves Ship Positions

Malachit>>

Last reported at 2014-Feb-05 10:25 UTC. Time now 2014-Nov-01 09:55 UTC.
Position N 29°51' E 122°40'.
Warning: this ship's position is months out of date.

Length 113 m; draft 5.8 m.

Type: Ship. MMSI: 210113000.

Date/timePositionNaut miles runAvg speedWind from/ knotsBaromVisibWave heightAir tempDewpointWater temp
2014-Feb-05 10:25N 29°51' E 122°40'910.6
2014-Feb-05 09:33N 29°48' E 122°30'7 6.7
2014-Feb-05 08:30N 29°47' E 122°22'0 0.1
2014-Feb-05 07:28N 29°47' E 122°22'0 0.1
2014-Feb-05 06:32N 29°47' E 122°22'0 0.0
2014-Feb-05 05:32N 29°47' E 122°22'0 0.0
2014-Feb-05 04:30N 29°47' E 122°22'0 0.0
2014-Feb-05 03:27N 29°47' E 122°22'0 0.0
2014-Feb-05 02:31N 29°47' E 122°22'0 0.0
2014-Feb-05 01:09N 29°47' E 122°22'0 0.0
2014-Feb-05 00:32N 29°47' E 122°22'0 0.0
2014-Feb-04 22:32N 29°47' E 122°22'0 0.0
2014-Feb-04 21:33N 29°47' E 122°22'0 0.1
2014-Feb-04 20:27N 29°47' E 122°22'0 0.0
2014-Feb-04 18:19N 29°47' E 122°22'0 0.1
2014-Feb-04 17:20N 29°47' E 122°22'0 0.0
2014-Feb-04 16:15N 29°47' E 122°22'0 0.0
2014-Feb-04 15:17N 29°47' E 122°22'0 0.0
2014-Feb-04 14:24N 29°47' E 122°22'0 0.1
2014-Feb-04 13:26N 29°47' E 122°22'0 0.1
2014-Feb-04 12:28N 29°47' E 122°22'1 1.4
2014-Feb-04 11:33N 29°46' E 122°21'6 5.9
2014-Feb-04 10:33N 29°48' E 122°14'7 6.1
2014-Feb-04 09:25N 29°55' E 122°13'0 0.0
2014-Feb-04 08:31N 29°55' E 122°13'0 0.1
2014-Feb-04 07:27N 29°55' E 122°13'0 0.0
2014-Feb-04 06:24N 29°55' E 122°13'0 0.1
2014-Feb-04 05:31N 29°55' E 122°13'4 4.2
2014-Feb-04 04:33N 29°55' E 122°08'6 5.7
2014-Feb-04 03:33N 29°55' E 122°01'7 6.9
2014-Feb-04 02:33N 30°01' E 121°57'4 0.3
2014-Feb-03 13:18N 30°05' E 121°57'0 0.0
2014-Feb-03 08:15N 30°05' E 121°57'0 0.0
2014-Feb-03 00:32N 30°05' E 121°57'0 0.0
2014-Feb-02 23:25N 30°05' E 121°57'0 0.0
2014-Feb-02 20:13N 30°05' E 121°57'0 0.0
2014-Feb-02 17:19N 30°05' E 121°57'0 0.0
2014-Feb-02 16:13N 30°05' E 121°57'0 0.0
2014-Feb-02 15:09N 30°05' E 121°57'0 0.0
2014-Feb-02 09:21N 30°05' E 121°57'0 0.0
2014-Feb-02 06:32N 30°05' E 121°57'0 0.0
2014-Feb-02 01:26N 30°05' E 121°57'0 0.0
2014-Feb-02 00:13N 30°05' E 121°57'0 0.0
2014-Feb-01 23:24N 30°05' E 121°57'0 0.0
2014-Feb-01 22:19N 30°05' E 121°57'0 0.0
2014-Feb-01 21:25N 30°05' E 121°57'0 0.0
2014-Feb-01 20:20N 30°05' E 121°57'0 0.0
2014-Feb-01 19:27N 30°05' E 121°57'0 0.0
2014-Feb-01 18:24N 30°05' E 121°57'0 0.0
2014-Feb-01 17:28N 30°05' E 121°57'0 0.0
2014-Feb-01 16:30N 30°05' E 121°57'0 0.0
2014-Feb-01 15:17N 30°05' E 121°57'0 0.0
2014-Feb-01 14:32N 30°05' E 121°57'0 0.0
2014-Feb-01 12:22N 30°05' E 121°57'0 0.0
2014-Feb-01 11:26N 30°05' E 121°57'0 0.0
2014-Feb-01 10:30N 30°05' E 121°57'0 0.0
2014-Feb-01 09:10N 30°05' E 121°57'0 0.0
2014-Feb-01 06:16N 30°05' E 121°57'0 0.0
2014-Feb-01 05:18N 30°05' E 121°57'0 0.0
2014-Feb-01 04:13N 30°05' E 121°57'0 0.0
2014-Feb-01 02:22N 30°05' E 121°57'0 0.0
2014-Feb-01 01:27N 30°05' E 121°57'0 0.0
2014-Jan-31 22:22N 30°05' E 121°57'0 0.0
2014-Jan-31 21:11N 30°05' E 121°57'0 0.0
2014-Jan-31 20:32N 30°05' E 121°57'0 0.0
2014-Jan-31 18:20N 30°05' E 121°57'0 0.0
2014-Jan-31 17:18N 30°05' E 121°57'0 0.0
2014-Jan-31 16:20N 30°05' E 121°57'0 0.0
2014-Jan-31 15:25N 30°05' E 121°57'0 0.0
2014-Jan-31 14:31N 30°05' E 121°57'0 0.0
2014-Jan-31 13:12N 30°05' E 121°57'0 0.0
2014-Jan-31 12:16N 30°05' E 121°57'0 0.0
2014-Jan-31 09:10N 30°05' E 121°57'0 0.0
2014-Jan-31 08:24N 30°05' E 121°57'0 0.0
2014-Jan-31 07:19N 30°05' E 121°57'0 0.0
2014-Jan-31 05:11N 30°05' E 121°57'0 0.0
2014-Jan-31 03:18N 30°05' E 121°57'0 0.0
2014-Jan-30 15:24N 30°05' E 121°57'0 0.0
2014-Jan-30 14:29N 30°05' E 121°57'0 0.0
2014-Jan-30 11:23N 30°05' E 121°57'0 0.0
2014-Jan-30 09:26N 30°05' E 121°57'0 0.0
2014-Jan-30 07:17N 30°05' E 121°57'0 0.0
2014-Jan-30 02:08N 30°05' E 121°57'0 0.0
2014-Jan-30 01:27N 30°05' E 121°57'0 0.0
2014-Jan-30 00:30N 30°05' E 121°57'0 0.0
2014-Jan-29 22:29N 30°05' E 121°57'0 0.0
2014-Jan-29 22:06N 30°05' E 121°57'0 0.0
2014-Jan-29 20:23N 30°05' E 121°57'0 0.0
2014-Jan-29 19:25N 30°05' E 121°57'0 0.0
2014-Jan-29 18:31N 30°05' E 121°57'0 0.0
2014-Jan-29 17:20N 30°05' E 121°57'0 0.0
2014-Jan-29 16:30N 30°05' E 121°57'0 0.0
2014-Jan-29 15:04N 30°05' E 121°57'0 0.0
2014-Jan-29 14:24N 30°05' E 121°57'0 0.0
2014-Jan-29 13:12N 30°05' E 121°57'0 0.0
2014-Jan-29 12:27N 30°05' E 121°57'0 0.0
2014-Jan-29 11:26N 30°05' E 121°57'0 0.0
2014-Jan-29 10:30N 30°05' E 121°57'0 0.0
2014-Jan-29 09:33N 30°05' E 121°57'0 0.0
2014-Jan-29 08:31N 30°05' E 121°57'0 0.0
2014-Jan-29 07:25N 30°05' E 121°57'0 0.0
2014-Jan-29 05:26N 30°05' E 121°57'0 0.0
2014-Jan-29 04:15N 30°05' E 121°57'0 0.0
2014-Jan-29 03:12N 30°05' E 121°57'0 0.0
2014-Jan-29 02:31N 30°05' E 121°57'0 0.0
2014-Jan-29 00:16N 30°05' E 121°57'0 0.0
2014-Jan-28 20:15N 30°05' E 121°57'0 0.0
2014-Jan-28 18:32N 30°05' E 121°57'0 0.0
2014-Jan-28 16:22N 30°05' E 121°57'0 0.0
2014-Jan-28 14:23N 30°05' E 121°57'0 0.0
2014-Jan-28 13:32N 30°05' E 121°57'0 0.0
2014-Jan-28 12:30N 30°05' E 121°57'0 0.0
2014-Jan-28 10:22N 30°05' E 121°57'0 0.0
2014-Jan-28 09:27N 30°05' E 121°57'0 0.0
2014-Jan-28 08:31N 30°05' E 121°57'0 0.0
2014-Jan-28 07:12N 30°05' E 121°57'0 0.0
2014-Jan-28 06:29N 30°05' E 121°57'0 0.0
2014-Jan-28 05:27N 30°05' E 121°57'0 0.0
2014-Jan-28 04:15N 30°05' E 121°57'0 0.0
2014-Jan-28 03:12N 30°05' E 121°57'0 0.0
2014-Jan-28 02:30N 30°05' E 121°57'0 0.0
2014-Jan-28 01:27N 30°05' E 121°57'0 0.0
2014-Jan-28 00:32N 30°05' E 121°57'0 0.0
2014-Jan-27 23:28N 30°05' E 121°57'0 0.0
2014-Jan-27 21:17N 30°05' E 121°57'0 0.0
2014-Jan-27 20:23N 30°05' E 121°57'0 0.0
2014-Jan-27 19:28N 30°05' E 121°57'0 0.0
2014-Jan-27 18:31N 30°05' E 121°57'0 0.0
2014-Jan-27 17:26N 30°05' E 121°57'0 0.0
2014-Jan-27 16:21N 30°05' E 121°57'0 0.0
2014-Jan-27 15:25N 30°05' E 121°57'0 0.0
2014-Jan-27 14:30N 30°05' E 121°57'0 0.0
2014-Jan-27 13:33N 30°05' E 121°57'0 0.0
2014-Jan-27 12:29N 30°05' E 121°57'0 0.0
2014-Jan-27 11:28N 30°05' E 121°57'0 0.0
2014-Jan-27 10:29N 30°05' E 121°57'0 0.0
2014-Jan-27 09:26N 30°05' E 121°57'0 0.0
2014-Jan-27 08:14N 30°05' E 121°57'0 0.0
2014-Jan-27 07:31N 30°05' E 121°57'0 0.0
2014-Jan-27 06:27N 30°05' E 121°57'0 0.0
2014-Jan-27 05:17N 30°05' E 121°57'0 0.0
2014-Jan-27 04:30N 30°05' E 121°57'0 0.0
2014-Jan-27 02:22N 30°05' E 121°57'0 0.0
2014-Jan-27 00:24N 30°05' E 121°57'0 0.0
2014-Jan-26 23:26N 30°05' E 121°57'0 0.0
2014-Jan-26 22:14N 30°05' E 121°57'0 0.0
2014-Jan-26 21:19N 30°05' E 121°57'0 0.0
2014-Jan-26 20:32N 30°05' E 121°57'0 0.0
2014-Jan-26 17:26N 30°05' E 121°57'0 0.0
2014-Jan-26 16:27N 30°05' E 121°57'0 0.0
2014-Jan-26 15:33N 30°05' E 121°57'0 0.0
2014-Jan-26 14:31N 30°05' E 121°57'0 0.0
2014-Jan-26 12:11N 30°05' E 121°57'0 0.0
2014-Jan-26 10:30N 30°05' E 121°57'  

Dump ship's entire track history